createdAt,value
2023-08-08T00:00:40.681Z,25.88
2023-08-08T00:03:13.144Z,26.36
2023-08-08T00:05:45.557Z,26.77
2023-08-08T00:08:18.147Z,27.18
2023-08-08T00:10:53.171Z,26.91
2023-08-08T00:13:25.538Z,26.92
2023-08-08T00:15:57.926Z,27.33
2023-08-08T00:18:30.326Z,24.49
2023-08-08T00:21:05.680Z,23.96
2023-08-08T00:23:38.366Z,23.51
2023-08-08T00:26:13.244Z,23.91
2023-08-08T00:28:45.665Z,23.97
2023-08-08T00:31:19.135Z,25.04
2023-08-08T00:33:51.580Z,23.17
2023-08-08T00:36:23.859Z,23.99
2023-08-08T00:38:56.303Z,23.34
2023-08-08T00:41:31.684Z,20.42
2023-08-08T00:44:04.067Z,22.46
2023-08-08T00:46:37.375Z,24.31
2023-08-08T00:49:10.013Z,22.28
2023-08-08T00:51:43.471Z,23.04
2023-08-08T00:54:18.120Z,23.01
2023-08-08T00:56:53.239Z,22.38
2023-08-08T00:59:25.982Z,23.49
2023-08-08T01:01:58.918Z,22.24
2023-08-08T01:04:32.790Z,22.61
2023-08-08T01:07:17.354Z,24.14
2023-08-08T01:09:58.022Z,21.96
2023-08-08T01:12:33.468Z,23.94
2023-08-08T01:15:07.581Z,22.55
2023-08-08T01:17:41.618Z,21.34
2023-08-08T01:20:18.148Z,21.70
2023-08-08T01:23:00.890Z,22.35
2023-08-08T01:25:36.163Z,22.01
2023-08-08T01:28:09.968Z,21.14
2023-08-08T01:30:43.721Z,22.61
2023-08-08T01:33:16.086Z,20.74
2023-08-08T01:35:52.844Z,20.97
2023-08-08T01:38:31.768Z,20.42
2023-08-08T01:41:09.647Z,21.28
2023-08-08T01:43:44.065Z,22.19
2023-08-08T01:46:18.103Z,21.70
2023-08-08T01:48:50.919Z,23.93
2023-08-08T01:51:25.362Z,22.02
2023-08-08T01:53:57.840Z,21.86
2023-08-08T01:56:32.779Z,21.85
2023-08-08T01:59:05.263Z,23.01
2023-08-08T02:01:37.652Z,21.66
2023-08-08T02:04:10.200Z,22.86
2023-08-08T02:06:42.481Z,23.78
2023-08-08T02:09:16.162Z,23.86
2023-08-08T02:11:51.167Z,22.61
2023-08-08T02:14:23.534Z,23.66
2023-08-08T02:16:55.872Z,25.09
2023-08-08T02:19:28.205Z,23.64
2023-08-08T02:22:01.091Z,23.16
2023-08-08T02:24:33.643Z,24.42
2023-08-08T02:27:09.564Z,24.24
2023-08-08T02:29:42.099Z,23.20
2023-08-08T02:32:14.571Z,22.24
2023-08-08T02:34:46.924Z,23.23
2023-08-08T02:37:19.218Z,23.28
2023-08-08T02:39:51.584Z,25.13
2023-08-08T02:42:26.735Z,26.19
2023-08-08T02:44:59.118Z,25.40
2023-08-08T02:47:31.417Z,26.17
2023-08-08T02:50:03.895Z,26.51
2023-08-08T02:52:36.215Z,25.45
2023-08-08T02:55:09.487Z,25.60
2023-08-08T02:57:44.690Z,24.02
2023-08-08T03:00:18.491Z,25.48
2023-08-08T03:02:50.902Z,24.37
2023-08-08T03:05:23.358Z,25.88
2023-08-08T03:07:55.755Z,24.89
2023-08-08T03:10:28.052Z,26.59
2023-08-08T03:13:03.076Z,25.39
2023-08-08T03:15:36.635Z,25.97
2023-08-08T03:18:09.653Z,27.97
2023-08-08T03:20:42.008Z,27.91
2023-08-08T03:23:14.422Z,28.37
2023-08-08T03:25:46.825Z,27.99
2023-08-08T03:28:21.989Z,29.00
2023-08-08T03:30:54.325Z,28.94
2023-08-08T03:33:26.603Z,29.39
2023-08-08T03:35:58.976Z,26.85
2023-08-08T03:38:31.588Z,26.19
2023-08-08T03:41:04.231Z,28.47
2023-08-08T03:43:39.257Z,27.33
2023-08-08T03:46:12.923Z,26.78
2023-08-08T03:48:45.466Z,31.30
2023-08-08T03:51:17.816Z,30.32
2023-08-08T03:53:50.110Z,30.07
2023-08-08T03:56:22.447Z,32.61
2023-08-08T03:58:57.992Z,31.31
2023-08-08T04:01:30.328Z,33.46
2023-08-08T04:04:02.700Z,32.26
2023-08-08T04:06:35.021Z,32.22
2023-08-08T04:09:08.031Z,31.32
2023-08-08T04:11:40.439Z,33.51
2023-08-08T04:14:15.662Z,33.94
2023-08-08T04:16:48.000Z,33.12
2023-08-08T04:19:20.447Z,31.85
2023-08-08T04:21:52.793Z,28.59
2023-08-08T04:24:25.027Z,29.04
2023-08-08T04:26:57.378Z,29.91
2023-08-08T04:29:32.404Z,28.08
2023-08-08T04:32:04.786Z,28.71
2023-08-08T04:34:37.109Z,29.79
2023-08-08T04:37:10.113Z,28.83
2023-08-08T04:39:44.787Z,28.52
2023-08-08T04:42:17.145Z,27.36
2023-08-08T04:44:52.055Z,29.44
2023-08-08T04:47:24.406Z,28.39
2023-08-08T04:49:57.037Z,28.76
2023-08-08T04:52:29.477Z,30.39
2023-08-08T04:55:01.767Z,29.70
2023-08-08T04:57:34.016Z,29.74
2023-08-08T05:00:10.426Z,27.56
2023-08-08T05:02:43.060Z,26.29
2023-08-08T05:05:16.908Z,29.52
2023-08-08T05:07:50.356Z,27.46
2023-08-08T05:10:22.729Z,27.18
2023-08-08T05:12:55.015Z,26.09
2023-08-08T05:15:29.971Z,25.02
2023-08-08T05:18:02.678Z,25.57
2023-08-08T05:20:35.048Z,25.84
2023-08-08T05:23:07.475Z,25.52
2023-08-08T05:25:39.858Z,27.56
2023-08-08T05:28:12.844Z,27.14
2023-08-08T05:30:47.931Z,25.68
2023-08-08T05:33:20.379Z,24.79
2023-08-08T05:35:52.659Z,25.01
2023-08-08T05:38:25.388Z,22.61
2023-08-08T05:40:57.604Z,25.38
2023-08-08T05:43:30.921Z,24.64
2023-08-08T05:46:05.981Z,23.43
2023-08-08T05:48:38.570Z,21.96
2023-08-08T05:51:11.515Z,21.87
2023-08-08T05:53:43.921Z,21.89
2023-08-08T05:56:17.144Z,21.89
2023-08-08T05:58:49.679Z,20.41
2023-08-08T06:01:24.892Z,20.67
2023-08-08T06:03:57.247Z,18.79
2023-08-08T06:06:29.655Z,18.21
2023-08-08T06:09:09.959Z,19.82
2023-08-08T06:11:42.378Z,16.97
2023-08-08T06:14:14.925Z,16.90
2023-08-08T06:16:50.118Z,15.17
2023-08-08T06:19:22.483Z,15.08
2023-08-08T06:21:54.855Z,15.23
2023-08-08T06:24:27.175Z,13.39
2023-08-08T06:26:59.488Z,13.52
2023-08-08T06:29:32.087Z,12.36
2023-08-08T06:32:07.615Z,12.99
2023-08-08T06:34:40.012Z,12.04
2023-08-08T06:37:12.735Z,11.49
2023-08-08T06:39:46.311Z,10.52
2023-08-08T06:42:18.701Z,11.66
2023-08-08T06:44:51.156Z,12.20
2023-08-08T06:47:26.223Z,11.76
2023-08-08T06:49:58.706Z,10.98
2023-08-08T06:52:31.222Z,10.56
2023-08-08T06:55:03.580Z,9.25
2023-08-08T06:57:38.930Z,9.81
2023-08-08T07:00:14.803Z,9.71
2023-08-08T07:02:49.781Z,9.64
2023-08-08T07:05:23.766Z,9.09
2023-08-08T07:07:56.756Z,9.46
2023-08-08T07:10:29.201Z,8.69
2023-08-08T07:13:01.556Z,9.69
2023-08-08T07:15:33.945Z,7.70
2023-08-08T07:18:10.176Z,8.73
2023-08-08T07:20:43.032Z,8.45
2023-08-08T07:23:15.655Z,8.59
2023-08-08T07:25:49.290Z,8.23
2023-08-08T07:28:22.455Z,7.58
2023-08-08T07:30:55.115Z,7.46
2023-08-08T07:33:30.097Z,7.61
2023-08-08T07:36:02.561Z,6.75
2023-08-08T07:38:37.998Z,7.65
2023-08-08T07:41:12.437Z,7.39
2023-08-08T07:43:44.665Z,7.52
2023-08-08T07:46:17.630Z,6.91
2023-08-08T07:48:52.814Z,6.32
2023-08-08T07:51:25.397Z,6.27
2023-08-08T07:53:57.663Z,6.31
2023-08-08T07:56:30.060Z,7.20
2023-08-08T07:59:03.448Z,5.88
2023-08-08T08:01:35.816Z,6.51
2023-08-08T08:04:10.798Z,6.48
2023-08-08T08:06:45.037Z,6.44
2023-08-08T08:09:17.618Z,5.93
2023-08-08T08:11:49.807Z,6.44
2023-08-08T08:14:22.196Z,5.11
2023-08-08T08:16:54.887Z,5.77
2023-08-08T08:19:37.399Z,5.75
2023-08-08T08:22:10.399Z,5.79
2023-08-08T08:24:42.665Z,5.49
2023-08-08T08:27:15.004Z,5.03
2023-08-08T08:29:47.448Z,5.56
2023-08-08T08:32:19.957Z,5.44
2023-08-08T08:34:54.814Z,5.01
2023-08-08T08:37:27.091Z,5.14
2023-08-08T08:39:59.546Z,5.77
2023-08-08T08:42:34.003Z,5.20
2023-08-08T08:45:08.510Z,5.46
2023-08-08T08:47:42.823Z,4.25
2023-08-08T08:50:20.203Z,5.15
2023-08-08T08:52:52.688Z,4.75
2023-08-08T08:55:24.981Z,4.47
2023-08-08T08:57:58.003Z,4.21
2023-08-08T09:00:30.427Z,4.50
2023-08-08T09:03:07.032Z,4.11
2023-08-08T09:05:46.232Z,4.63
2023-08-08T09:08:19.114Z,4.27
2023-08-08T09:10:52.100Z,5.14
2023-08-08T09:13:27.294Z,4.93
2023-08-08T09:16:00.022Z,4.27
2023-08-08T09:18:32.713Z,4.29
2023-08-08T09:21:07.706Z,4.96
2023-08-08T09:23:44.027Z,4.50
2023-08-08T09:26:19.432Z,5.02
2023-08-08T09:28:53.116Z,4.86
2023-08-08T09:31:25.367Z,5.34
2023-08-08T09:33:59.577Z,4.61
2023-08-08T09:36:34.727Z,5.54
2023-08-08T09:39:08.679Z,6.52
2023-08-08T09:41:41.072Z,7.84
2023-08-08T09:44:13.884Z,6.22
2023-08-08T09:46:46.770Z,5.76
2023-08-08T09:49:20.444Z,5.74
2023-08-08T09:51:55.585Z,6.52
2023-08-08T09:54:29.530Z,5.75
2023-08-08T09:57:03.667Z,5.99
2023-08-08T09:59:37.086Z,5.58
2023-08-08T10:02:10.612Z,5.96
2023-08-08T10:04:44.399Z,5.99
2023-08-08T10:07:19.809Z,6.51
2023-08-08T10:09:53.713Z,6.06
2023-08-08T10:12:27.778Z,7.02
2023-08-08T10:15:02.014Z,6.11
2023-08-08T10:17:41.278Z,7.48
2023-08-08T10:20:18.874Z,6.97
2023-08-08T10:22:59.102Z,6.34
2023-08-08T10:25:37.109Z,7.64
2023-08-08T10:28:26.285Z,7.55
2023-08-08T10:31:02.974Z,6.73
2023-08-08T10:33:47.448Z,6.87
2023-08-08T10:36:19.773Z,6.47
2023-08-08T10:38:56.288Z,7.81
2023-08-08T10:41:32.394Z,7.56
2023-08-08T10:44:04.659Z,8.16
2023-08-08T10:46:39.714Z,8.15
2023-08-08T10:49:12.414Z,6.61
2023-08-08T10:51:48.231Z,7.31
2023-08-08T10:54:30.405Z,6.17
2023-08-08T10:57:05.045Z,6.89
2023-08-08T10:59:43.083Z,6.84
2023-08-08T11:02:15.666Z,7.74
2023-08-08T11:04:48.597Z,6.59
2023-08-08T11:07:21.301Z,6.96
2023-08-08T11:09:57.268Z,6.10
2023-08-08T11:12:29.597Z,6.51
2023-08-08T11:15:01.885Z,5.77
2023-08-08T11:17:34.492Z,6.71
2023-08-08T11:20:07.648Z,6.08
2023-08-08T11:22:39.979Z,5.61
2023-08-08T11:25:15.037Z,5.87
2023-08-08T11:27:55.065Z,6.43
2023-08-08T11:30:29.317Z,7.53
2023-08-08T11:35:38.025Z,5.43
2023-08-08T11:38:11.319Z,5.68
2023-08-08T11:40:47.047Z,5.91
2023-08-08T11:43:19.733Z,5.37
2023-08-08T11:45:55.123Z,5.95
2023-08-08T11:48:27.601Z,6.33
2023-08-08T11:50:59.977Z,5.44
2023-08-08T11:53:32.256Z,6.06
2023-08-08T11:56:08.785Z,5.54
2023-08-08T11:58:41.548Z,5.97
2023-08-08T12:01:15.591Z,6.14
2023-08-08T12:03:47.908Z,5.95
2023-08-08T12:06:20.745Z,5.82
2023-08-08T12:08:53.714Z,5.78
2023-08-08T12:14:05.597Z,6.09
2023-08-08T12:16:37.905Z,6.07
2023-08-08T12:19:15.751Z,6.48
2023-08-08T12:21:48.081Z,6.67
2023-08-08T12:24:20.409Z,6.40
2023-08-08T12:26:55.375Z,5.87
2023-08-08T12:29:27.892Z,6.39
2023-08-08T12:32:00.235Z,6.16
2023-08-08T12:34:32.606Z,6.41
2023-08-08T12:37:04.913Z,6.15
2023-08-08T12:39:37.403Z,5.87
2023-08-08T12:42:12.597Z,6.29
2023-08-08T12:44:44.928Z,6.34
2023-08-08T12:47:17.568Z,5.95
2023-08-08T12:49:49.938Z,6.23
2023-08-08T12:52:23.653Z,6.50
2023-08-08T12:54:56.588Z,6.69
2023-08-08T12:57:32.854Z,6.75
2023-08-08T13:00:05.369Z,6.86
2023-08-08T13:02:38.743Z,6.26
2023-08-08T13:05:11.520Z,6.43
2023-08-08T13:07:44.082Z,6.99
2023-08-08T13:10:20.707Z,7.49
2023-08-08T13:12:56.487Z,6.51
2023-08-08T13:15:29.054Z,7.16
2023-08-08T13:18:01.444Z,6.26
2023-08-08T13:20:33.877Z,6.10
2023-08-08T13:23:06.089Z,7.03
2023-08-08T13:25:38.385Z,6.39
2023-08-08T13:28:15.930Z,6.76
2023-08-08T13:30:48.351Z,7.51
2023-08-08T13:33:22.136Z,7.02
2023-08-08T13:35:54.504Z,7.56
2023-08-08T13:38:26.951Z,7.11
2023-08-08T13:41:01.411Z,7.43
2023-08-08T13:43:36.267Z,6.99
2023-08-08T13:46:11.150Z,7.23
2023-08-08T13:48:44.090Z,7.34
2023-08-08T13:51:16.455Z,7.76
2023-08-08T13:53:50.301Z,7.26
2023-08-08T13:56:23.427Z,6.83
2023-08-08T13:58:58.472Z,7.00
2023-08-08T14:01:30.814Z,6.77
2023-08-08T14:04:03.172Z,7.06
2023-08-08T14:06:36.664Z,7.49
2023-08-08T14:09:11.083Z,7.10
2023-08-08T14:11:43.649Z,7.23
2023-08-08T14:14:18.553Z,8.04
2023-08-08T14:16:50.864Z,8.21
2023-08-08T14:19:24.386Z,8.18
2023-08-08T14:21:56.800Z,7.91
2023-08-08T14:24:29.169Z,7.59
2023-08-08T14:27:02.027Z,7.74
2023-08-08T14:29:37.094Z,8.11
2023-08-08T14:32:10.428Z,8.14
2023-08-08T14:34:43.012Z,6.91
2023-08-08T14:37:15.518Z,7.69
2023-08-08T14:39:47.997Z,7.41
2023-08-08T14:42:20.653Z,5.94
2023-08-08T14:44:55.641Z,6.75
2023-08-08T14:47:28.191Z,6.56
2023-08-08T14:50:00.714Z,6.71
2023-08-08T14:52:33.059Z,6.70
2023-08-08T14:55:05.778Z,7.41
2023-08-08T14:57:38.094Z,7.67
2023-08-08T15:00:15.584Z,7.61
2023-08-08T15:02:47.906Z,7.56
2023-08-08T15:05:20.175Z,8.60
2023-08-08T15:07:52.627Z,7.71
2023-08-08T15:10:24.933Z,9.05
2023-08-08T15:12:57.306Z,8.55
2023-08-08T15:15:32.274Z,9.15
2023-08-08T15:18:04.855Z,7.88
2023-08-08T15:20:37.503Z,7.91
2023-08-08T15:23:11.502Z,8.59
2023-08-08T15:25:43.835Z,8.54
2023-08-08T15:28:16.504Z,9.03
2023-08-08T15:30:51.690Z,9.34
2023-08-08T15:33:24.165Z,8.66
2023-08-08T15:35:57.934Z,9.10
2023-08-08T15:38:30.795Z,9.65
2023-08-08T15:41:03.306Z,8.31
2023-08-08T15:43:35.961Z,9.76
2023-08-08T15:46:13.406Z,10.11
2023-08-08T15:48:45.865Z,10.24
2023-08-08T15:51:18.407Z,10.28
2023-08-08T15:53:50.788Z,11.19
2023-08-08T15:56:23.612Z,11.41
2023-08-08T15:58:56.048Z,11.92
2023-08-08T16:01:31.067Z,10.86
2023-08-08T16:04:03.449Z,12.25
2023-08-08T16:06:35.763Z,12.75
2023-08-08T16:09:09.172Z,11.21
2023-08-08T16:11:41.543Z,11.31
2023-08-08T16:14:13.992Z,11.96
2023-08-08T16:16:49.854Z,11.51
2023-08-08T16:19:25.165Z,12.49
2023-08-08T16:21:57.445Z,10.99
2023-08-08T16:24:30.143Z,11.76
2023-08-08T16:27:02.930Z,10.99
2023-08-08T16:29:35.647Z,11.66
2023-08-08T16:32:10.809Z,11.09
2023-08-08T16:34:43.155Z,12.88
2023-08-08T16:37:15.399Z,12.32
2023-08-08T16:39:48.028Z,12.57
2023-08-08T16:42:20.421Z,13.01
2023-08-08T16:44:52.832Z,12.41
2023-08-08T16:47:27.762Z,11.66
2023-08-08T16:50:00.243Z,11.95
2023-08-08T16:52:32.573Z,11.79
2023-08-08T16:55:04.922Z,12.59
2023-08-08T16:57:37.851Z,12.47
2023-08-08T17:00:12.104Z,12.34
2023-08-08T17:02:47.271Z,13.04
2023-08-08T17:05:20.131Z,12.26
2023-08-08T17:07:52.389Z,11.51
2023-08-08T17:10:24.722Z,12.74
2023-08-08T17:12:57.079Z,12.62
2023-08-08T17:15:29.963Z,11.91
2023-08-08T17:18:05.831Z,10.57
2023-08-08T17:20:38.341Z,11.44
2023-08-08T17:23:10.722Z,12.74
2023-08-08T17:25:43.095Z,11.69
2023-08-08T17:28:15.515Z,11.01
2023-08-08T17:30:48.765Z,11.86
2023-08-08T17:33:23.782Z,11.85
2023-08-08T17:35:56.159Z,12.75
2023-08-08T17:38:28.822Z,11.98
2023-08-08T17:41:01.193Z,11.61
2023-08-08T17:43:33.449Z,11.57
2023-08-08T17:46:05.761Z,12.85
2023-08-08T17:48:40.836Z,12.46
2023-08-08T17:51:13.342Z,12.62
2023-08-08T17:53:45.749Z,14.21
2023-08-08T17:56:18.281Z,14.11
2023-08-08T17:58:50.867Z,14.44
2023-08-08T18:01:23.382Z,15.15
2023-08-08T18:03:58.298Z,14.08
2023-08-08T18:06:31.797Z,14.67
2023-08-08T18:09:05.212Z,14.81
2023-08-08T18:11:39.725Z,14.48
2023-08-08T18:14:13.919Z,14.83
2023-08-08T18:16:46.274Z,15.31
2023-08-08T18:19:23.420Z,14.74
2023-08-08T18:21:55.735Z,13.76
2023-08-08T18:24:28.515Z,16.20
2023-08-08T18:27:00.770Z,16.69
2023-08-08T18:29:33.281Z,15.12
2023-08-08T18:32:05.801Z,14.54
2023-08-08T18:34:40.733Z,15.56
2023-08-08T18:37:13.177Z,14.49
2023-08-08T18:39:45.750Z,16.16
2023-08-08T18:42:18.128Z,17.01
2023-08-08T18:44:50.409Z,16.05
2023-08-08T18:47:22.721Z,16.08
2023-08-08T18:49:57.722Z,16.84
2023-08-08T18:52:30.055Z,16.69
2023-08-08T18:55:02.354Z,16.81
2023-08-08T18:57:35.337Z,15.89
2023-08-08T19:00:09.055Z,16.79
2023-08-08T19:02:41.442Z,17.84
2023-08-08T19:05:18.755Z,16.99
2023-08-08T19:07:52.529Z,18.09
2023-08-08T19:10:25.060Z,16.51
2023-08-08T19:12:57.350Z,18.22
2023-08-08T19:15:30.212Z,18.30
2023-08-08T19:18:02.617Z,19.19
2023-08-08T19:20:37.480Z,18.09
2023-08-08T19:23:09.775Z,16.58
2023-08-08T19:25:42.591Z,17.96
2023-08-08T19:28:16.482Z,17.71
2023-08-08T19:30:49.016Z,18.38
2023-08-08T19:33:21.342Z,18.13
2023-08-08T19:35:57.610Z,18.56
2023-08-08T19:38:30.174Z,19.74
2023-08-08T19:41:05.749Z,17.96
2023-08-08T19:43:38.068Z,20.30
2023-08-08T19:46:11.819Z,19.62
2023-08-08T19:48:46.014Z,19.44
2023-08-08T19:51:21.465Z,18.86
2023-08-08T19:53:53.827Z,19.16
2023-08-08T19:56:26.197Z,19.19
2023-08-08T19:58:58.585Z,20.86
2023-08-08T20:01:31.062Z,21.87
2023-08-08T20:04:05.829Z,21.81
2023-08-08T20:06:40.908Z,28.60
2023-08-08T20:09:13.343Z,20.26
2023-08-08T20:11:45.652Z,19.55
2023-08-08T20:14:18.021Z,19.39
2023-08-08T20:16:50.344Z,21.08
2023-08-08T20:19:22.927Z,18.77
2023-08-08T20:21:57.908Z,17.50
2023-08-08T20:24:32.421Z,19.09
2023-08-08T20:27:04.961Z,18.01
2023-08-08T20:29:37.621Z,18.54
2023-08-08T20:32:09.942Z,20.78
2023-08-08T20:34:42.560Z,20.58
2023-08-08T20:37:18.659Z,21.95
2023-08-08T20:39:52.113Z,22.90
2023-08-08T20:42:24.402Z,24.70
2023-08-08T20:44:56.773Z,24.06
2023-08-08T20:47:29.115Z,25.94
2023-08-08T20:50:01.589Z,27.56
2023-08-08T20:52:37.189Z,30.26
2023-08-08T20:55:10.760Z,32.54
2023-08-08T20:57:43.139Z,34.56
2023-08-08T21:00:18.429Z,29.31
2023-08-08T21:02:50.928Z,29.01
2023-08-08T21:05:23.482Z,26.81
2023-08-08T21:08:01.136Z,26.05
2023-08-08T21:10:33.635Z,24.71
2023-08-08T21:13:06.108Z,24.64
2023-08-08T21:15:38.601Z,21.46
2023-08-08T21:18:10.992Z,21.66
2023-08-08T21:20:43.380Z,23.10
2023-08-08T21:23:18.461Z,24.49
2023-08-08T21:25:50.809Z,25.44
2023-08-08T21:28:24.442Z,27.05
2023-08-08T21:30:56.788Z,27.35
2023-08-08T21:33:29.190Z,27.66
2023-08-08T21:36:01.482Z,25.34
2023-08-08T21:38:37.276Z,26.50
2023-08-08T21:41:09.602Z,26.84
2023-08-08T21:43:42.457Z,25.28
2023-08-08T21:46:15.661Z,25.96
2023-08-08T21:48:48.247Z,27.64
2023-08-08T21:51:20.544Z,25.66
2023-08-08T21:53:55.661Z,27.27
2023-08-08T21:56:29.441Z,25.94
2023-08-08T21:59:02.026Z,26.16
2023-08-08T22:01:34.648Z,25.20
2023-08-08T22:04:07.629Z,25.27
2023-08-08T22:06:40.007Z,24.37
2023-08-08T22:09:15.563Z,24.91
2023-08-08T22:11:47.923Z,23.49
2023-08-08T22:14:20.283Z,25.17
2023-08-08T22:16:52.722Z,26.26
2023-08-08T22:19:27.145Z,26.39
2023-08-08T22:21:59.457Z,24.86
2023-08-08T22:24:35.123Z,22.33
2023-08-08T22:27:07.743Z,23.40
2023-08-08T22:29:40.568Z,23.68
2023-08-08T22:32:12.975Z,22.36
2023-08-08T22:34:45.245Z,22.71
2023-08-08T22:37:17.797Z,21.28
2023-08-08T22:39:53.070Z,19.82
2023-08-08T22:42:25.364Z,21.51
2023-08-08T22:44:57.660Z,21.78
2023-08-08T22:47:29.993Z,21.19
2023-08-08T22:50:02.923Z,23.27
2023-08-08T22:52:35.323Z,25.81
2023-08-08T22:55:11.553Z,28.22
2023-08-08T22:57:44.208Z,29.16
2023-08-08T23:00:19.623Z,30.28
2023-08-08T23:02:52.748Z,30.85
2023-08-08T23:05:25.696Z,32.21
2023-08-08T23:07:58.234Z,34.09
2023-08-08T23:10:33.279Z,33.34
2023-08-08T23:13:05.706Z,35.41
2023-08-08T23:15:40.374Z,34.40
2023-08-08T23:18:14.906Z,38.41
2023-08-08T23:20:49.124Z,41.04
2023-08-08T23:23:21.571Z,39.99
2023-08-08T23:25:57.159Z,42.23
2023-08-08T23:28:29.731Z,47.16
2023-08-08T23:31:02.094Z,44.57
2023-08-08T23:33:34.441Z,51.47
2023-08-08T23:36:07.623Z,49.89
2023-08-08T23:38:42.142Z,53.21
2023-08-08T23:41:19.035Z,52.35
2023-08-08T23:43:51.860Z,56.91
2023-08-08T23:46:24.468Z,59.79
2023-08-08T23:48:57.070Z,56.30
2023-08-08T23:51:29.358Z,58.18
2023-08-08T23:54:01.821Z,57.85
2023-08-08T23:56:36.718Z,54.73
2023-08-08T23:59:09.305Z,58.00
